createdAt,value
2023-03-16T00:03:21.525Z,88.04
2023-03-16T00:08:23.149Z,87.79
2023-03-16T00:13:25.202Z,88.34
2023-03-16T00:18:28.898Z,88.26
2023-03-16T00:23:35.515Z,87.59
2023-03-16T00:28:37.128Z,87.18
2023-03-16T00:33:39.445Z,87.51
2023-03-16T00:38:45.688Z,87.71
2023-03-16T00:43:48.759Z,87.74
2023-03-16T00:48:51.358Z,87.74
2023-03-16T00:53:52.792Z,87.99
2023-03-16T00:58:57.594Z,88.05
2023-03-16T01:03:59.779Z,88.04
2023-03-16T01:09:02.551Z,87.27
2023-03-16T01:14:04.852Z,86.88
2023-03-16T01:19:06.365Z,87.18
2023-03-16T01:24:09.118Z,87.45
2023-03-16T01:29:12.308Z,87.00
2023-03-16T01:34:17.803Z,87.13
2023-03-16T01:39:19.959Z,86.83
2023-03-16T01:44:35.065Z,86.57
2023-03-16T01:49:40.494Z,86.74
2023-03-16T01:54:57.191Z,87.24
2023-03-16T02:00:10.947Z,86.65
2023-03-16T02:05:33.103Z,86.87
2023-03-16T02:10:37.266Z,87.03
2023-03-16T02:15:39.022Z,87.51
2023-03-16T02:20:53.408Z,87.39
2023-03-16T02:26:03.136Z,87.55
2023-03-16T02:31:07.441Z,87.28
2023-03-16T02:36:09.623Z,87.54
2023-03-16T02:41:18.708Z,87.60
2023-03-16T02:46:26.680Z,87.37
2023-03-16T02:51:28.907Z,87.73
2023-03-16T02:56:30.901Z,87.34
2023-03-16T03:01:34.676Z,87.42
2023-03-16T03:06:36.207Z,87.26
2023-03-16T03:11:38.365Z,87.35
2023-03-16T03:16:40.206Z,87.13
2023-03-16T03:21:41.779Z,86.83
2023-03-16T03:26:44.946Z,87.24
2023-03-16T03:31:52.139Z,87.14
2023-03-16T03:36:53.731Z,86.70
2023-03-16T03:41:55.656Z,86.46
2023-03-16T03:46:58.192Z,86.71
2023-03-16T03:52:04.838Z,86.59
2023-03-16T03:57:06.434Z,86.47
2023-03-16T04:02:09.396Z,86.78
2023-03-16T04:07:16.520Z,86.79
2023-03-16T04:12:19.562Z,86.42
2023-03-16T04:17:22.237Z,87.28
2023-03-16T04:22:25.046Z,87.23
2023-03-16T04:27:26.535Z,87.22
2023-03-16T04:32:28.074Z,87.20
2023-03-16T04:37:31.043Z,87.50
2023-03-16T04:42:32.520Z,87.27
2023-03-16T04:47:34.555Z,87.12
2023-03-16T04:52:36.598Z,87.18
2023-03-16T04:57:38.153Z,87.02
2023-03-16T05:02:39.640Z,86.87
2023-03-16T05:07:45.103Z,87.27
2023-03-16T05:12:46.915Z,87.23
2023-03-16T05:17:48.902Z,87.63
2023-03-16T05:22:52.210Z,88.99
2023-03-16T05:27:59.245Z,88.89
2023-03-16T05:33:23.413Z,89.12
2023-03-16T05:38:31.799Z,89.21
2023-03-16T05:43:34.279Z,89.31
2023-03-16T05:48:35.980Z,89.38
2023-03-16T05:53:38.362Z,89.43
2023-03-16T05:58:47.022Z,89.27
2023-03-16T06:03:50.037Z,89.08
2023-03-16T06:08:55.042Z,88.60
2023-03-16T06:14:00.858Z,88.42
2023-03-16T06:19:02.532Z,88.72
2023-03-16T06:24:07.618Z,88.42
2023-03-16T06:29:09.028Z,89.05
2023-03-16T06:34:12.523Z,89.40
2023-03-16T06:39:14.903Z,89.41
2023-03-16T06:44:22.351Z,89.30
2023-03-16T06:49:43.182Z,89.52
2023-03-16T06:54:52.728Z,89.27
2023-03-16T06:59:55.068Z,89.38
2023-03-16T07:04:56.466Z,89.60
2023-03-16T07:09:58.756Z,89.91
2023-03-16T07:15:01.073Z,90.18
2023-03-16T07:20:10.529Z,90.71
2023-03-16T07:25:13.880Z,90.52
2023-03-16T07:30:20.314Z,90.46
2023-03-16T07:35:23.914Z,90.69
2023-03-16T07:40:25.592Z,90.67
2023-03-16T07:45:31.725Z,90.73
2023-03-16T07:50:33.336Z,90.60
2023-03-16T07:55:36.544Z,90.47
2023-03-16T08:00:39.950Z,91.00
2023-03-16T08:05:41.668Z,91.31
2023-03-16T08:10:49.880Z,91.22
2023-03-16T08:16:03.461Z,91.53
2023-03-16T08:21:10.578Z,91.63
2023-03-16T08:26:12.148Z,92.18
2023-03-16T08:31:15.227Z,92.64
2023-03-16T08:36:25.385Z,92.93
2023-03-16T08:41:30.805Z,93.20
2023-03-16T08:46:35.592Z,93.09
2023-03-16T08:51:37.616Z,93.77
2023-03-16T08:56:39.109Z,93.62
2023-03-16T09:01:41.220Z,94.00
2023-03-16T09:06:42.634Z,94.04
2023-03-16T09:11:44.353Z,94.44
2023-03-16T09:16:45.870Z,94.44
2023-03-16T09:21:47.540Z,94.65
2023-03-16T09:26:49.086Z,94.43
2023-03-16T09:31:50.735Z,93.95
2023-03-16T09:36:53.642Z,94.03
2023-03-16T09:42:08.458Z,93.49
2023-03-16T09:47:12.110Z,94.08
2023-03-16T09:52:30.194Z,93.29
2023-03-16T09:57:35.927Z,93.92
2023-03-16T10:02:51.200Z,93.93
2023-03-16T10:08:04.957Z,93.64
2023-03-16T10:13:17.730Z,93.69
2023-03-16T10:18:24.691Z,93.53
2023-03-16T10:23:26.778Z,94.00
2023-03-16T10:28:32.346Z,93.54
2023-03-16T10:33:36.448Z,93.57
2023-03-16T10:38:40.452Z,94.41
2023-03-16T10:43:42.140Z,94.73
2023-03-16T10:49:01.276Z,93.79
2023-03-16T10:54:19.767Z,93.76
2023-03-16T10:59:27.694Z,93.59
2023-03-16T11:04:33.850Z,93.49
2023-03-16T11:09:37.052Z,94.06
2023-03-16T11:14:38.530Z,93.75
2023-03-16T11:19:52.764Z,93.34
2023-03-16T11:25:04.114Z,92.99
2023-03-16T11:30:14.958Z,93.88
2023-03-16T11:35:23.646Z,92.32
2023-03-16T11:40:53.818Z,91.89
2023-03-16T11:46:20.553Z,92.51
2023-03-16T11:51:43.178Z,92.97
2023-03-16T11:56:50.559Z,92.69
2023-03-16T12:02:00.204Z,93.41
2023-03-16T12:07:15.903Z,91.80
2023-03-16T12:12:23.435Z,91.43
2023-03-16T12:17:31.944Z,91.83
2023-03-16T12:22:39.539Z,91.38
2023-03-16T12:27:42.794Z,91.36
2023-03-16T12:32:53.576Z,90.73
2023-03-16T12:38:22.465Z,91.22
2023-03-16T12:43:31.784Z,90.87
2023-03-16T12:48:40.506Z,90.79
2023-03-16T12:53:53.490Z,91.67
2023-03-16T12:58:57.755Z,91.89
2023-03-16T13:04:03.405Z,91.67
2023-03-16T13:09:07.159Z,91.09
2023-03-16T13:14:12.558Z,91.10
2023-03-16T13:19:19.762Z,90.11
2023-03-16T13:24:49.530Z,91.58
2023-03-16T13:29:58.999Z,95.17
2023-03-16T13:35:05.254Z,93.91
2023-03-16T13:40:24.743Z,90.19
2023-03-16T13:45:33.226Z,88.28
2023-03-16T13:50:36.100Z,86.66
2023-03-16T13:55:38.523Z,86.51
2023-03-16T14:00:43.816Z,86.61
2023-03-16T14:05:46.072Z,88.62
2023-03-16T14:10:48.374Z,91.00
2023-03-16T14:15:50.480Z,91.06
2023-03-16T14:20:53.783Z,92.58
2023-03-16T14:25:55.704Z,92.73
2023-03-16T14:31:10.978Z,92.50
2023-03-16T14:36:14.970Z,93.93
2023-03-16T14:41:26.180Z,91.66
2023-03-16T14:46:31.249Z,92.98
2023-03-16T14:51:34.770Z,92.89
2023-03-16T14:56:36.502Z,92.58
2023-03-16T15:01:38.586Z,92.13
2023-03-16T15:06:40.514Z,92.37
2023-03-16T15:11:43.846Z,92.57
2023-03-16T15:16:46.275Z,92.56
2023-03-16T15:21:47.687Z,91.79
2023-03-16T15:26:49.263Z,91.83
2023-03-16T15:31:53.387Z,91.41
2023-03-16T15:36:56.186Z,90.83
2023-03-16T15:41:57.606Z,90.77
2023-03-16T15:47:00.476Z,89.90
2023-03-16T15:52:01.994Z,91.87
2023-03-16T15:57:03.671Z,90.17
2023-03-16T16:02:25.246Z,87.50
2023-03-16T16:07:27.243Z,87.17
2023-03-16T16:12:30.877Z,86.40
2023-03-16T16:17:46.052Z,86.49
2023-03-16T16:22:59.587Z,87.37
2023-03-16T16:28:01.119Z,87.67
2023-03-16T16:33:03.063Z,87.67
2023-03-16T16:38:04.488Z,87.89
2023-03-16T16:43:06.401Z,87.45
2023-03-16T16:48:28.360Z,87.31
2023-03-16T16:53:29.938Z,87.98
2023-03-16T16:58:32.170Z,87.83
2023-03-16T17:03:33.902Z,87.82
2023-03-16T17:08:35.312Z,87.72
2023-03-16T17:13:40.074Z,87.43
2023-03-16T17:18:42.528Z,87.55
2023-03-16T17:23:44.554Z,87.38
2023-03-16T17:28:56.920Z,87.55
2023-03-16T17:33:58.431Z,87.19
2023-03-16T17:39:01.995Z,87.25
2023-03-16T17:44:05.435Z,87.49
2023-03-16T17:49:19.843Z,87.62
2023-03-16T17:54:21.435Z,87.73
2023-03-16T17:59:23.106Z,87.33
2023-03-16T18:04:25.865Z,87.67
2023-03-16T18:09:28.599Z,87.86
2023-03-16T18:14:36.046Z,87.98
2023-03-16T18:19:37.689Z,87.94
2023-03-16T18:24:40.014Z,87.71
2023-03-16T18:29:41.926Z,88.21
2023-03-16T18:34:43.548Z,87.79
2023-03-16T18:39:45.406Z,88.04
2023-03-16T18:44:47.033Z,87.98
2023-03-16T18:49:52.808Z,88.10
2023-03-16T18:54:55.559Z,88.29
2023-03-16T18:59:57.004Z,88.62
2023-03-16T19:05:01.251Z,88.05
2023-03-16T19:10:08.483Z,88.13
2023-03-16T19:15:33.799Z,87.77
2023-03-16T19:20:35.520Z,88.29
2023-03-16T19:25:39.731Z,87.93
2023-03-16T19:30:41.737Z,87.11
2023-03-16T19:35:51.536Z,87.78
2023-03-16T19:40:58.934Z,86.83
2023-03-16T19:46:00.412Z,86.93
2023-03-16T19:51:02.033Z,87.16
2023-03-16T19:56:03.743Z,87.03
2023-03-16T20:01:21.997Z,87.09
2023-03-16T20:06:24.130Z,87.58
2023-03-16T20:11:30.031Z,87.40
2023-03-16T20:16:34.348Z,87.53
2023-03-16T20:21:36.026Z,87.43
2023-03-16T20:26:37.523Z,87.80
2023-03-16T20:31:39.111Z,87.56
2023-03-16T20:36:40.503Z,87.21
2023-03-16T20:41:42.416Z,87.07
2023-03-16T20:46:44.901Z,87.07
2023-03-16T20:51:46.341Z,86.93
2023-03-16T20:56:48.038Z,87.31
2023-03-16T21:01:50.128Z,86.83
2023-03-16T21:06:51.844Z,87.42
2023-03-16T21:11:53.372Z,86.36
2023-03-16T21:16:54.944Z,86.34
2023-03-16T21:21:56.347Z,86.61
2023-03-16T21:26:57.789Z,86.60
2023-03-16T21:31:59.240Z,86.80
2023-03-16T21:37:00.773Z,86.62
2023-03-16T21:42:02.175Z,87.03
2023-03-16T21:47:06.419Z,86.90
2023-03-16T21:52:30.096Z,86.70
2023-03-16T21:57:32.228Z,86.33
2023-03-16T22:02:35.809Z,87.00
2023-03-16T22:07:37.482Z,86.61
2023-03-16T22:12:38.906Z,86.95
2023-03-16T22:17:40.622Z,87.07
2023-03-16T22:22:42.356Z,87.05
2023-03-16T22:27:44.006Z,86.86
2023-03-16T22:32:48.937Z,86.87
2023-03-16T22:37:50.538Z,86.91
2023-03-16T22:42:52.010Z,87.02
2023-03-16T22:47:56.269Z,86.93
2023-03-16T22:53:00.788Z,87.58
2023-03-16T22:58:08.363Z,86.81
2023-03-16T23:03:16.879Z,87.19
2023-03-16T23:08:22.749Z,87.07
2023-03-16T23:13:25.425Z,87.01
2023-03-16T23:18:26.883Z,87.60
2023-03-16T23:23:28.296Z,87.35
2023-03-16T23:28:29.718Z,86.33
2023-03-16T23:33:31.170Z,86.48
2023-03-16T23:38:32.599Z,86.06
2023-03-16T23:43:34.443Z,84.93
2023-03-16T23:48:38.224Z,84.42
2023-03-16T23:53:40.298Z,84.47
2023-03-16T23:58:41.865Z,83.63
